METAR Data
IDs: Format: Raw Decoded Include TAF

Data at: 0236 UTC 25 Jan 2020

METAR for:KFSW (Fort Madison Muni, IA, US)
Text:KFSW 250215Z AUTO 30007KT 1 1/2SM -SN 01/01 A2990 RMK AO2
Temperature: 1.0°C ( 34°F)
Dewpoint: 1.0°C ( 34°F) [RH = 100%]
Pressure (altimeter):29.90 inches Hg (1012.6 mb)
Winds:from the WNW (300 degrees) at 8 MPH (7 knots; 3.6 m/s)
Visibility: 1.50 sm ( 2.41 km)
Weather:-SN (light snow)
QC Flag:automated observation with no human augmentation